createdAt,value
2023-03-20T00:03:41.939Z,100377.29
2023-03-20T00:08:45.945Z,100373.38
2023-03-20T00:13:47.643Z,100366.74
2023-03-20T00:18:49.777Z,100364.39
2023-03-20T00:23:51.293Z,100362.02
2023-03-20T00:28:53.005Z,100357.25
2023-03-20T00:33:57.508Z,100359.49
2023-03-20T00:38:59.067Z,100356.60
2023-03-20T00:44:05.238Z,100356.41
2023-03-20T00:49:07.930Z,100354.34
2023-03-20T00:54:14.304Z,100351.94
2023-03-20T00:59:22.666Z,100350.92
2023-03-20T01:04:24.522Z,100346.32
2023-03-20T01:09:26.261Z,100343.08
2023-03-20T01:14:27.816Z,100340.69
2023-03-20T01:19:29.313Z,100340.36
2023-03-20T01:24:30.945Z,100338.34
2023-03-20T01:29:32.460Z,100335.63
2023-03-20T01:34:33.975Z,100340.42
2023-03-20T01:39:37.001Z,100340.45
2023-03-20T01:44:38.830Z,100335.19
2023-03-20T01:50:18.057Z,100328.56
2023-03-20T01:55:21.129Z,100327.03
2023-03-20T02:00:30.709Z,100320.55
2023-03-20T02:05:33.247Z,100325.02
2023-03-20T02:10:35.419Z,100321.77
2023-03-20T02:15:55.819Z,100317.69
2023-03-20T02:21:09.698Z,100317.36
2023-03-20T02:26:22.661Z,100318.40
2023-03-20T02:31:39.718Z,100317.90
2023-03-20T02:37:18.772Z,100314.31
2023-03-20T02:42:38.332Z,100307.84
2023-03-20T02:47:48.864Z,100307.34
2023-03-20T02:52:53.701Z,100301.36
2023-03-20T02:57:58.641Z,100298.27
2023-03-20T03:03:12.174Z,100291.92
2023-03-20T03:08:19.442Z,100281.33
2023-03-20T03:13:27.577Z,100281.66
2023-03-20T03:18:30.502Z,100279.44
2023-03-20T03:23:40.220Z,100281.33
2023-03-20T03:28:47.544Z,100281.02
2023-03-20T03:33:52.613Z,100287.34
2023-03-20T03:38:59.971Z,100284.48
2023-03-20T03:44:04.572Z,100279.73
2023-03-20T03:49:08.714Z,100277.34
2023-03-20T03:54:34.261Z,100278.20
2023-03-20T03:59:40.017Z,100276.84
2023-03-20T04:04:48.001Z,100273.08
2023-03-20T04:09:49.552Z,100273.22
2023-03-20T04:14:51.100Z,100274.41
2023-03-20T04:19:52.601Z,100273.41
2023-03-20T04:24:54.118Z,100275.80
2023-03-20T04:29:56.632Z,100279.89
2023-03-20T04:34:58.172Z,100272.93
2023-03-20T04:39:59.686Z,100271.91
2023-03-20T04:45:01.236Z,100270.71
2023-03-20T04:50:03.222Z,100270.21
2023-03-20T04:55:05.609Z,100271.73
2023-03-20T05:00:07.985Z,100270.20
2023-03-20T05:05:09.766Z,100271.74
2023-03-20T05:10:11.797Z,100275.48
2023-03-20T05:15:13.719Z,100274.12
2023-03-20T05:20:16.006Z,100275.30
2023-03-20T05:25:17.871Z,100279.21
2023-03-20T05:30:26.242Z,100279.86
2023-03-20T05:35:27.842Z,100284.76
2023-03-20T05:40:29.313Z,100289.80
2023-03-20T05:45:31.132Z,100285.86
2023-03-20T05:50:32.625Z,100285.33
2023-03-20T05:55:34.699Z,100286.31
2023-03-20T06:00:36.492Z,100279.92
2023-03-20T06:05:38.368Z,100280.21
2023-03-20T06:10:40.078Z,100289.02
2023-03-20T06:15:41.778Z,100290.16
2023-03-20T06:20:43.380Z,100295.54
2023-03-20T06:25:44.955Z,100297.38
2023-03-20T06:30:46.532Z,100294.40
2023-03-20T06:35:48.596Z,100298.77
2023-03-20T06:40:50.537Z,100299.20
2023-03-20T06:45:52.828Z,100296.55
2023-03-20T06:50:55.963Z,100297.84
2023-03-20T06:55:57.548Z,100297.23
2023-03-20T07:00:59.080Z,100294.52
2023-03-20T07:06:00.999Z,100296.55
2023-03-20T07:11:06.558Z,100290.35
2023-03-20T07:16:09.419Z,100288.89
2023-03-20T07:21:17.285Z,100294.42
2023-03-20T07:26:18.791Z,100292.44
2023-03-20T07:31:23.211Z,100288.55
2023-03-20T07:36:24.934Z,100295.16
2023-03-20T07:41:26.432Z,100293.22
2023-03-20T07:46:28.231Z,100288.55
2023-03-20T07:51:29.858Z,100284.38
2023-03-20T07:56:31.361Z,100284.30
2023-03-20T08:01:33.342Z,100286.79
2023-03-20T08:06:34.938Z,100292.48
2023-03-20T08:11:38.002Z,100293.89
2023-03-20T08:16:39.650Z,100283.65
2023-03-20T08:21:41.529Z,100279.66
2023-03-20T08:26:44.404Z,100279.45
2023-03-20T08:31:46.979Z,100278.34
2023-03-20T08:36:48.452Z,100277.11
2023-03-20T08:41:50.010Z,100275.41
2023-03-20T08:46:51.502Z,100270.86
2023-03-20T08:51:53.009Z,100279.50
2023-03-20T08:56:54.503Z,100274.58
2023-03-20T09:01:56.523Z,100274.00
2023-03-20T09:07:00.131Z,100278.63
2023-03-20T09:12:01.752Z,100278.05
2023-03-20T09:17:03.322Z,100272.59
2023-03-20T09:22:05.144Z,100274.47
2023-03-20T09:27:07.768Z,100277.16
2023-03-20T09:32:14.602Z,100277.69
2023-03-20T09:37:16.136Z,100281.48
2023-03-20T09:42:36.264Z,100277.88
2023-03-20T09:47:52.736Z,100277.24
2023-03-20T09:53:17.276Z,100273.63
2023-03-20T09:58:24.812Z,100267.14
2023-03-20T10:03:45.787Z,100265.25
2023-03-20T10:08:47.439Z,100263.90
2023-03-20T10:14:23.042Z,100267.32
2023-03-20T10:19:27.672Z,100259.14
2023-03-20T10:24:33.938Z,100258.71
2023-03-20T10:30:05.256Z,100248.88
2023-03-20T10:35:30.269Z,100250.05
2023-03-20T10:40:42.520Z,100240.42
2023-03-20T10:45:52.700Z,100239.03
2023-03-20T10:50:58.792Z,100236.15
2023-03-20T10:56:11.942Z,100232.52
2023-03-20T11:01:13.614Z,100225.79
2023-03-20T11:06:20.605Z,100222.83
2023-03-20T11:11:25.575Z,100225.83
2023-03-20T11:16:37.111Z,100222.87
2023-03-20T11:21:56.142Z,100219.59
2023-03-20T11:27:06.708Z,100219.31
2023-03-20T11:32:14.228Z,100218.52
2023-03-20T11:37:29.011Z,100221.09
2023-03-20T11:42:30.905Z,100214.01
2023-03-20T11:47:35.649Z,100215.73
2023-03-20T11:52:39.809Z,100217.48
2023-03-20T11:57:42.785Z,100210.52
2023-03-20T12:02:44.860Z,100206.84
2023-03-20T12:07:50.713Z,100205.30
2023-03-20T12:13:00.439Z,100203.02
2023-03-20T12:18:08.857Z,100201.18
2023-03-20T12:23:13.694Z,100208.05
2023-03-20T12:28:42.897Z,100206.80
2023-03-20T12:34:01.457Z,100203.30
2023-03-20T12:39:07.087Z,100205.60
2023-03-20T12:44:35.522Z,100203.21
2023-03-20T12:49:46.478Z,100200.13
2023-03-20T12:55:29.729Z,100198.02
2023-03-20T13:00:42.629Z,100199.39
2023-03-20T13:05:56.254Z,100198.61
2023-03-20T13:11:07.038Z,100195.05
2023-03-20T13:16:31.554Z,100197.06
2023-03-20T13:22:06.634Z,100196.80
2023-03-20T13:27:14.452Z,100191.94
2023-03-20T13:32:30.798Z,100191.34
2023-03-20T13:37:40.846Z,100193.81
2023-03-20T13:43:25.534Z,100190.27
2023-03-20T13:48:37.732Z,100187.80
2023-03-20T13:53:45.890Z,100183.17
2023-03-20T13:59:05.406Z,100181.87
2023-03-20T14:04:14.266Z,100180.88
2023-03-20T14:09:30.701Z,100185.38
2023-03-20T14:14:52.394Z,100183.29
2023-03-20T14:19:55.920Z,100178.53
2023-03-20T14:25:04.756Z,100179.33
2023-03-20T14:30:38.695Z,100183.25
2023-03-20T14:35:46.489Z,100182.94
2023-03-20T14:40:57.118Z,100180.48
2023-03-20T14:46:21.188Z,100181.77
2023-03-20T14:51:44.154Z,100184.29
2023-03-20T14:56:45.689Z,100181.96
2023-03-20T15:01:53.314Z,100180.35
2023-03-20T15:07:02.175Z,100186.10
2023-03-20T15:12:04.607Z,100187.02
2023-03-20T15:17:07.373Z,100188.84
2023-03-20T15:22:17.332Z,100190.58
2023-03-20T15:27:19.281Z,100189.32
2023-03-20T15:32:21.731Z,100182.56
2023-03-20T15:37:25.561Z,100186.64
2023-03-20T15:42:27.670Z,100184.94
2023-03-20T15:47:30.411Z,100188.80
2023-03-20T15:52:53.082Z,100191.27
2023-03-20T15:58:00.897Z,100197.30
2023-03-20T16:03:06.637Z,100199.94
2023-03-20T16:08:32.978Z,100204.79
2023-03-20T16:13:41.542Z,100207.23
2023-03-20T16:18:46.480Z,100209.84
2023-03-20T16:23:52.665Z,100215.43
2023-03-20T16:28:58.701Z,100220.70
2023-03-20T16:34:06.567Z,100218.52
2023-03-20T16:39:15.995Z,100220.17
2023-03-20T16:44:20.845Z,100216.05
2023-03-20T16:49:37.211Z,100213.16
2023-03-20T16:54:39.288Z,100208.35
2023-03-20T16:59:41.334Z,100199.93
2023-03-20T17:04:43.268Z,100201.73
2023-03-20T17:09:57.475Z,100199.66
2023-03-20T17:14:59.047Z,100201.40
2023-03-20T17:20:00.952Z,100207.16
2023-03-20T17:25:02.434Z,100207.42
2023-03-20T17:30:06.278Z,100217.28
2023-03-20T17:35:08.590Z,100220.39
2023-03-20T17:40:36.745Z,100227.64
2023-03-20T17:45:38.894Z,100237.54
2023-03-20T17:50:40.485Z,100234.93
2023-03-20T17:55:42.566Z,100231.05
2023-03-20T18:00:45.384Z,100224.69
2023-03-20T18:05:50.155Z,100220.83
2023-03-20T18:10:53.507Z,100219.30
2023-03-20T18:15:57.014Z,100219.84
2023-03-20T18:20:59.471Z,100217.83
2023-03-20T18:26:01.146Z,100212.64
2023-03-20T18:31:02.671Z,100214.52
2023-03-20T18:36:04.943Z,100216.98
2023-03-20T18:41:07.445Z,100222.03
2023-03-20T18:46:23.334Z,100228.24
2023-03-20T18:51:25.374Z,100222.34
2023-03-20T18:56:28.477Z,100221.75
2023-03-20T19:01:30.029Z,100227.98
2023-03-20T19:06:32.395Z,100228.95
2023-03-20T19:11:34.111Z,100227.35
2023-03-20T19:16:37.865Z,100228.11
2023-03-20T19:21:39.558Z,100230.48
2023-03-20T19:26:42.209Z,100224.64
2023-03-20T19:31:44.141Z,100223.52
2023-03-20T19:36:48.969Z,100218.91
2023-03-20T19:41:51.792Z,100217.89
2023-03-20T19:46:53.398Z,100221.20
2023-03-20T19:51:55.071Z,100223.84
2023-03-20T19:56:56.601Z,100221.69
2023-03-20T20:01:58.940Z,100225.45
2023-03-20T20:07:36.284Z,100227.74
2023-03-20T20:12:22.401Z,100228.44
2023-03-20T20:17:24.387Z,100226.56
2023-03-20T20:22:27.293Z,100225.14
2023-03-20T20:27:29.669Z,100228.23
2023-03-20T20:32:31.516Z,100224.38
2023-03-20T20:38:25.195Z,100217.64
2023-03-20T20:43:01.905Z,100218.71
2023-03-20T20:48:06.460Z,100216.59
2023-03-20T20:53:08.390Z,100229.71
2023-03-20T20:58:11.342Z,100229.36
2023-03-20T21:03:12.904Z,100228.90
2023-03-20T21:08:15.228Z,100229.05
2023-03-20T21:13:16.781Z,100229.59
2023-03-20T21:18:18.294Z,100225.80
2023-03-20T21:23:19.817Z,100231.24
2023-03-20T21:28:21.341Z,100236.66
2023-03-20T21:33:23.929Z,100239.94
2023-03-20T21:43:47.753Z,100243.98
2023-03-20T21:49:41.179Z,100246.56
2023-03-20T22:00:14.193Z,100240.17
2023-03-20T22:16:17.136Z,100234.25
2023-03-20T22:42:55.810Z,100224.52
2023-03-20T22:47:54.196Z,100223.08
2023-03-20T22:52:56.256Z,100224.72
2023-03-20T22:58:06.813Z,100220.26
2023-03-20T23:03:19.984Z,100220.16
2023-03-20T23:08:28.122Z,100223.89
2023-03-20T23:13:29.742Z,100219.09
2023-03-20T23:18:31.489Z,100214.96
2023-03-20T23:23:33.167Z,100224.59
2023-03-20T23:28:36.717Z,100227.42
2023-03-20T23:33:39.284Z,100230.48
2023-03-20T23:38:41.426Z,100233.96
2023-03-20T23:43:42.948Z,100232.66
2023-03-20T23:48:44.453Z,100225.80
2023-03-20T23:53:46.053Z,100226.92
2023-03-20T23:58:58.283Z,100233.48
